AUI3SG UKLL-EPKK
Flight info
| Callsign | AUI3SG |
|---|---|
| Flight time | 0h 38m |
| Altitude | 26000 |
| Route | DIBED L981 ARSOG DCT GOVRI |
| Aircraft | B738/M-SDE2E3FGHIRWXY/LB1 |
Departure
| Time | 2026-04-23 22:39 |
|---|---|
| Airport | Lviv International Airport (UKLL) |
Arrival
| Time | 2026-04-23 23:17 |
|---|---|
| Airport | Kraków John Paul II International Airport (EPKK) |
| Time | Latitude | Longitude | Altitude | Speed | Heading |
|---|---|---|---|---|---|
| 2026-04-23 22:23 | 49.81199 | 23.96003 | 1062 ft | 0 kts | 46° |
| 2026-04-23 22:31 | 49.81198 | 23.96003 | 1062 ft | 1 kts | 46° |
| 2026-04-23 22:31 | 49.81187 | 23.95984 | 1065 ft | 2 kts | 49° |
| 2026-04-23 22:32 | 49.81177 | 23.95964 | 1067 ft | 2 kts | 54° |
| 2026-04-23 22:32 | 49.81168 | 23.95942 | 1065 ft | 2 kts | 65° |
| 2026-04-23 22:32 | 49.81163 | 23.95918 | 1065 ft | 2 kts | 91° |
| 2026-04-23 22:32 | 49.81168 | 23.95893 | 1065 ft | 2 kts | 126° |
| 2026-04-23 22:33 | 49.81174 | 23.95882 | 1065 ft | 1 kts | 134° |
| 2026-04-23 22:33 | 49.81174 | 23.95881 | 1065 ft | 0 kts | 134° |
| 2026-04-23 22:34 | 49.81173 | 23.95883 | 1065 ft | 1 kts | 134° |
| 2026-04-23 22:34 | 49.81140 | 23.95933 | 1065 ft | 12 kts | 135° |
| 2026-04-23 22:34 | 49.81067 | 23.96029 | 1065 ft | 7 kts | 168° |
| 2026-04-23 22:35 | 49.81015 | 23.96030 | 1065 ft | 8 kts | 178° |
| 2026-04-23 22:35 | 49.80896 | 23.96033 | 1064 ft | 26 kts | 178° |
| 2026-04-23 22:35 | 49.80732 | 23.96202 | 1064 ft | 29 kts | 136° |
| 2026-04-23 22:35 | 49.80593 | 23.96411 | 1065 ft | 27 kts | 135° |
| 2026-04-23 22:36 | 49.80452 | 23.96626 | 1063 ft | 30 kts | 135° |
| 2026-04-23 22:36 | 49.80300 | 23.96857 | 1062 ft | 31 kts | 136° |
| 2026-04-23 22:36 | 49.80140 | 23.97096 | 1064 ft | 32 kts | 136° |
| 2026-04-23 22:36 | 49.79995 | 23.97322 | 1064 ft | 12 kts | 105° |
| 2026-04-23 22:37 | 49.79974 | 23.97433 | 1065 ft | 9 kts | 145° |
| 2026-04-23 22:37 | 49.79947 | 23.97378 | 1064 ft | 9 kts | 302° |
| 2026-04-23 22:37 | 49.79996 | 23.97301 | 1064 ft | 11 kts | 314° |
| 2026-04-23 22:37 | 49.80057 | 23.97206 | 1064 ft | 14 kts | 316° |
| 2026-04-23 22:38 | 49.80092 | 23.97153 | 1065 ft | 0 kts | 316° |
| 2026-04-23 22:38 | 49.80102 | 23.97139 | 1065 ft | 16 kts | 316° |
| 2026-04-23 22:39 | 49.80411 | 23.96682 | 1063 ft | 105 kts | 316° |
| 2026-04-23 22:39 | 49.81120 | 23.95605 | 1085 ft | 177 kts | 315° |
| 2026-04-23 22:39 | 49.82047 | 23.94280 | 2068 ft | 179 kts | 318° |
| 2026-04-23 22:39 | 49.83004 | 23.93012 | 3090 ft | 183 kts | 319° |
| 2026-04-23 22:40 | 49.83977 | 23.91593 | 3627 ft | 205 kts | 317° |
| 2026-04-23 22:40 | 49.85048 | 23.89988 | 4020 ft | 230 kts | 317° |
| 2026-04-23 22:40 | 49.87434 | 23.86450 | 5845 ft | 239 kts | 317° |
| 2026-04-23 22:41 | 49.88649 | 23.84660 | 6791 ft | 242 kts | 317° |
| 2026-04-23 22:41 | 49.89883 | 23.82836 | 7667 ft | 247 kts | 315° |
| 2026-04-23 22:41 | 49.90826 | 23.80567 | 8525 ft | 257 kts | 294° |
| 2026-04-23 22:41 | 49.91051 | 23.77808 | 9409 ft | 268 kts | 272° |
| 2026-04-23 22:42 | 49.90882 | 23.74845 | 10253 ft | 276 kts | 269° |
| 2026-04-23 22:42 | 49.90686 | 23.71807 | 10561 ft | 300 kts | 270° |
| 2026-04-23 22:42 | 49.90526 | 23.68446 | 10775 ft | 325 kts | 271° |
| 2026-04-23 22:42 | 49.90413 | 23.64854 | 11269 ft | 339 kts | 272° |
| 2026-04-23 22:43 | 49.90335 | 23.61161 | 11978 ft | 345 kts | 273° |
| 2026-04-23 22:43 | 49.90283 | 23.57425 | 12771 ft | 349 kts | 274° |
| 2026-04-23 22:43 | 49.90247 | 23.53620 | 13529 ft | 355 kts | 274° |
| 2026-04-23 22:43 | 49.90215 | 23.49761 | 14218 ft | 361 kts | 274° |
| 2026-04-23 22:44 | 49.90182 | 23.45844 | 14922 ft | 365 kts | 274° |
| 2026-04-23 22:44 | 49.90105 | 23.41885 | 15617 ft | 370 kts | 272° |
| 2026-04-23 22:44 | 49.89972 | 23.37880 | 16298 ft | 375 kts | 272° |
| 2026-04-23 22:44 | 49.89822 | 23.33813 | 16974 ft | 380 kts | 271° |
| 2026-04-23 22:45 | 49.89671 | 23.29703 | 17648 ft | 384 kts | 272° |
| 2026-04-23 22:45 | 49.89522 | 23.25539 | 18317 ft | 389 kts | 272° |
| 2026-04-23 22:45 | 49.89375 | 23.21320 | 18878 ft | 393 kts | 272° |
| 2026-04-23 22:45 | 49.89230 | 23.17105 | 19432 ft | 398 kts | 272° |
| 2026-04-23 22:46 | 49.89081 | 23.12803 | 19998 ft | 402 kts | 272° |
| 2026-04-23 22:46 | 49.88937 | 23.08444 | 20551 ft | 405 kts | 274° |
| 2026-04-23 22:46 | 49.89280 | 23.04154 | 21042 ft | 398 kts | 293° |
| 2026-04-23 22:46 | 49.90320 | 23.00208 | 21621 ft | 396 kts | 299° |
| 2026-04-23 22:47 | 49.91474 | 22.96306 | 22167 ft | 400 kts | 300° |
| 2026-04-23 22:47 | 49.92646 | 22.92371 | 22674 ft | 404 kts | 300° |
| 2026-04-23 22:47 | 49.93819 | 22.88373 | 23174 ft | 409 kts | 300° |
| 2026-04-23 22:47 | 49.94984 | 22.84329 | 23746 ft | 410 kts | 300° |
| 2026-04-23 22:48 | 49.96136 | 22.80286 | 24333 ft | 409 kts | 300° |
| 2026-04-23 22:48 | 49.97280 | 22.76252 | 24946 ft | 407 kts | 300° |
| 2026-04-23 22:48 | 49.98407 | 22.72216 | 25505 ft | 409 kts | 297° |
| 2026-04-23 22:48 | 49.99259 | 22.67956 | 25956 ft | 418 kts | 288° |
| 2026-04-23 22:49 | 49.99710 | 22.63524 | 25969 ft | 421 kts | 283° |
| 2026-04-23 22:49 | 50.00043 | 22.59003 | 25983 ft | 421 kts | 282° |
| 2026-04-23 22:49 | 50.00345 | 22.54467 | 25990 ft | 423 kts | 282° |
| 2026-04-23 22:49 | 50.00646 | 22.49924 | 25997 ft | 423 kts | 282° |
| 2026-04-23 22:50 | 50.00957 | 22.45368 | 25999 ft | 424 kts | 282° |
| 2026-04-23 22:50 | 50.01279 | 22.40815 | 25996 ft | 424 kts | 282° |
| 2026-04-23 22:50 | 50.01608 | 22.36257 | 25998 ft | 424 kts | 282° |
| 2026-04-23 22:50 | 50.01941 | 22.31692 | 25991 ft | 424 kts | 282° |
| 2026-04-23 22:51 | 50.02163 | 22.28672 | 25995 ft | 424 kts | 282° |
| 2026-04-23 22:51 | 50.02497 | 22.24118 | 25987 ft | 424 kts | 282° |
| 2026-04-23 22:51 | 50.02829 | 22.19570 | 25993 ft | 423 kts | 282° |
| 2026-04-23 22:51 | 50.03160 | 22.15020 | 26000 ft | 423 kts | 282° |
| 2026-04-23 22:52 | 50.03488 | 22.10467 | 25992 ft | 423 kts | 282° |
| 2026-04-23 22:52 | 50.03815 | 22.05915 | 25987 ft | 423 kts | 282° |
| 2026-04-23 22:52 | 50.04140 | 22.01357 | 25992 ft | 423 kts | 282° |
| 2026-04-23 22:52 | 50.04462 | 21.96817 | 25991 ft | 423 kts | 282° |
| 2026-04-23 22:53 | 50.04783 | 21.92273 | 25992 ft | 423 kts | 282° |
| 2026-04-23 22:53 | 50.05103 | 21.87718 | 25993 ft | 423 kts | 282° |
| 2026-04-23 22:53 | 50.05420 | 21.83165 | 25997 ft | 423 kts | 282° |
| 2026-04-23 22:53 | 50.05736 | 21.78620 | 26001 ft | 424 kts | 282° |
| 2026-04-23 22:54 | 50.06050 | 21.74058 | 25998 ft | 423 kts | 282° |
| 2026-04-23 22:54 | 50.06356 | 21.69555 | 25979 ft | 412 kts | 282° |
| 2026-04-23 22:54 | 50.06652 | 21.65163 | 25995 ft | 406 kts | 282° |
| 2026-04-23 22:54 | 50.06947 | 21.60797 | 26002 ft | 406 kts | 282° |
| 2026-04-23 22:55 | 50.07244 | 21.56434 | 26008 ft | 407 kts | 282° |
| 2026-04-23 22:55 | 50.07541 | 21.52032 | 25674 ft | 408 kts | 281° |
| 2026-04-23 22:55 | 50.07831 | 21.47673 | 25327 ft | 403 kts | 281° |
| 2026-04-23 22:55 | 50.08118 | 21.43331 | 24913 ft | 400 kts | 281° |
| 2026-04-23 22:56 | 50.08396 | 21.39101 | 24513 ft | 397 kts | 281° |
| 2026-04-23 22:56 | 50.08676 | 21.34827 | 24100 ft | 394 kts | 281° |
| 2026-04-23 22:56 | 50.08951 | 21.30596 | 23692 ft | 392 kts | 281° |
| 2026-04-23 22:56 | 50.09224 | 21.26388 | 23212 ft | 390 kts | 281° |
| 2026-04-23 22:57 | 50.09494 | 21.22210 | 22737 ft | 387 kts | 281° |
| 2026-04-23 22:57 | 50.09759 | 21.18063 | 22306 ft | 383 kts | 281° |
| 2026-04-23 22:57 | 50.10022 | 21.13948 | 21890 ft | 379 kts | 281° |
| 2026-04-23 22:57 | 50.10280 | 21.09876 | 21464 ft | 376 kts | 281° |
| 2026-04-23 22:58 | 50.10534 | 21.05843 | 21047 ft | 373 kts | 281° |
| 2026-04-23 22:58 | 50.10998 | 21.01919 | 20606 ft | 362 kts | 296° |
| 2026-04-23 22:58 | 50.11995 | 20.98360 | 20206 ft | 355 kts | 301° |
| 2026-04-23 22:58 | 50.13058 | 20.94905 | 19774 ft | 353 kts | 301° |
| 2026-04-23 22:59 | 50.14125 | 20.91472 | 19371 ft | 351 kts | 301° |
| 2026-04-23 22:59 | 50.15180 | 20.88054 | 18964 ft | 348 kts | 301° |
| 2026-04-23 22:59 | 50.16219 | 20.84645 | 18578 ft | 346 kts | 301° |
| 2026-04-23 22:59 | 50.17228 | 20.81304 | 18168 ft | 344 kts | 300° |
| 2026-04-23 23:00 | 50.18236 | 20.77939 | 17725 ft | 342 kts | 300° |
| 2026-04-23 23:00 | 50.19236 | 20.74587 | 17297 ft | 339 kts | 300° |
| 2026-04-23 23:00 | 50.20224 | 20.71263 | 16892 ft | 336 kts | 300° |
| 2026-04-23 23:00 | 50.21202 | 20.67963 | 16484 ft | 334 kts | 300° |
| 2026-04-23 23:01 | 50.22176 | 20.64674 | 16097 ft | 331 kts | 300° |
| 2026-04-23 23:01 | 50.23142 | 20.61407 | 15694 ft | 329 kts | 300° |
| 2026-04-23 23:01 | 50.24095 | 20.58176 | 15302 ft | 327 kts | 300° |
| 2026-04-23 23:01 | 50.25041 | 20.54967 | 14914 ft | 325 kts | 299° |
| 2026-04-23 23:02 | 50.25987 | 20.51756 | 14525 ft | 323 kts | 299° |
| 2026-04-23 23:02 | 50.26925 | 20.48565 | 14135 ft | 322 kts | 299° |
| 2026-04-23 23:02 | 50.27860 | 20.45381 | 13708 ft | 322 kts | 299° |
| 2026-04-23 23:02 | 50.28779 | 20.42248 | 13288 ft | 321 kts | 299° |
| 2026-04-23 23:03 | 50.29706 | 20.39084 | 12870 ft | 319 kts | 298° |
| 2026-04-23 23:03 | 50.30625 | 20.35943 | 12476 ft | 316 kts | 298° |
| 2026-04-23 23:03 | 50.31537 | 20.32819 | 12103 ft | 314 kts | 298° |
| 2026-04-23 23:03 | 50.32327 | 20.29643 | 11716 ft | 316 kts | 285° |
| 2026-04-23 23:04 | 50.32389 | 20.26227 | 11600 ft | 312 kts | 265° |
| 2026-04-23 23:04 | 50.31968 | 20.22931 | 11506 ft | 306 kts | 261° |
| 2026-04-23 23:04 | 50.31506 | 20.19708 | 11373 ft | 300 kts | 261° |
| 2026-04-23 23:04 | 50.31061 | 20.16557 | 11233 ft | 292 kts | 262° |
| 2026-04-23 23:05 | 50.30640 | 20.13499 | 11091 ft | 282 kts | 262° |
| 2026-04-23 23:05 | 50.30238 | 20.10563 | 10956 ft | 269 kts | 262° |
| 2026-04-23 23:05 | 50.29773 | 20.07810 | 10838 ft | 261 kts | 248° |
| 2026-04-23 23:05 | 50.28632 | 20.05603 | 10750 ft | 267 kts | 218° |
| 2026-04-23 23:06 | 50.26901 | 20.04502 | 10513 ft | 275 kts | 186° |
| 2026-04-23 23:06 | 50.25013 | 20.04703 | 10307 ft | 272 kts | 169° |
| 2026-04-23 23:06 | 50.23233 | 20.05628 | 10004 ft | 270 kts | 144° |
| 2026-04-23 23:06 | 50.21976 | 20.07651 | 9744 ft | 261 kts | 116° |
| 2026-04-23 23:07 | 50.21408 | 20.10273 | 9467 ft | 253 kts | 91° |
| 2026-04-23 23:07 | 50.21483 | 20.12965 | 9204 ft | 246 kts | 75° |
| 2026-04-23 23:07 | 50.21822 | 20.15566 | 8938 ft | 244 kts | 73° |
| 2026-04-23 23:07 | 50.22191 | 20.18152 | 8666 ft | 244 kts | 72° |
| 2026-04-23 23:08 | 50.22563 | 20.20727 | 8444 ft | 241 kts | 72° |
| 2026-04-23 23:08 | 50.22922 | 20.23287 | 8209 ft | 244 kts | 72° |
| 2026-04-23 23:08 | 50.23281 | 20.25892 | 7956 ft | 247 kts | 73° |
| 2026-04-23 23:08 | 50.23449 | 20.28573 | 7669 ft | 254 kts | 95° |
| 2026-04-23 23:09 | 50.22733 | 20.31097 | 7429 ft | 260 kts | 129° |
| 2026-04-23 23:09 | 50.21239 | 20.32627 | 7214 ft | 259 kts | 164° |
| 2026-04-23 23:09 | 50.19475 | 20.33255 | 6998 ft | 264 kts | 169° |
| 2026-04-23 23:09 | 50.17647 | 20.33421 | 6664 ft | 263 kts | 195° |
| 2026-04-23 23:10 | 50.16043 | 20.32274 | 6422 ft | 250 kts | 226° |
| 2026-04-23 23:10 | 50.14986 | 20.30222 | 6156 ft | 238 kts | 250° |
| 2026-04-23 23:10 | 50.14470 | 20.27821 | 5916 ft | 231 kts | 263° |
| 2026-04-23 23:10 | 50.14141 | 20.25386 | 5655 ft | 229 kts | 264° |
| 2026-04-23 23:11 | 50.13828 | 20.22958 | 5404 ft | 228 kts | 264° |
| 2026-04-23 23:11 | 50.13521 | 20.20537 | 5169 ft | 227 kts | 264° |
| 2026-04-23 23:11 | 50.13211 | 20.18158 | 4926 ft | 226 kts | 264° |
| 2026-04-23 23:11 | 50.12894 | 20.15792 | 4820 ft | 219 kts | 264° |
| 2026-04-23 23:12 | 50.12582 | 20.13485 | 4642 ft | 216 kts | 264° |
| 2026-04-23 23:12 | 50.12275 | 20.11216 | 4421 ft | 213 kts | 264° |
| 2026-04-23 23:12 | 50.11969 | 20.08961 | 4202 ft | 211 kts | 263° |
| 2026-04-23 23:12 | 50.11676 | 20.06729 | 3976 ft | 209 kts | 265° |
| 2026-04-23 23:13 | 50.11406 | 20.04510 | 3762 ft | 207 kts | 264° |
| 2026-04-23 23:13 | 50.11117 | 20.02380 | 3645 ft | 193 kts | 264° |
| 2026-04-23 23:13 | 50.10834 | 20.00370 | 3431 ft | 187 kts | 264° |
| 2026-04-23 23:13 | 50.10564 | 19.98460 | 3174 ft | 173 kts | 263° |
| 2026-04-23 23:14 | 50.10320 | 19.96731 | 2952 ft | 155 kts | 264° |
| 2026-04-23 23:14 | 50.10100 | 19.95170 | 2769 ft | 137 kts | 265° |
| 2026-04-23 23:14 | 50.09906 | 19.93780 | 2598 ft | 128 kts | 265° |
| 2026-04-23 23:14 | 50.09720 | 19.92446 | 2416 ft | 125 kts | 264° |
| 2026-04-23 23:15 | 50.09534 | 19.91112 | 2238 ft | 127 kts | 263° |
| 2026-04-23 23:15 | 50.09346 | 19.89768 | 2068 ft | 127 kts | 262° |
| 2026-04-23 23:15 | 50.09158 | 19.88418 | 1881 ft | 128 kts | 260° |
| 2026-04-23 23:15 | 50.08968 | 19.87067 | 1723 ft | 132 kts | 259° |
| 2026-04-23 23:16 | 50.08772 | 19.85661 | 1551 ft | 132 kts | 258° |
| 2026-04-23 23:16 | 50.08578 | 19.84262 | 1364 ft | 132 kts | 259° |
| 2026-04-23 23:16 | 50.08383 | 19.82839 | 1228 ft | 134 kts | 257° |
| 2026-04-23 23:16 | 50.08177 | 19.81422 | 1007 ft | 133 kts | 260° |
| 2026-04-23 23:17 | 50.07987 | 19.80021 | 834 ft | 133 kts | 259° |
| 2026-04-23 23:17 | 50.07810 | 19.78746 | 796 ft | 103 kts | 258° |
| 2026-04-23 23:17 | 50.07725 | 19.78145 | 793 ft | 22 kts | 252° |
| 2026-04-23 23:17 | 50.07666 | 19.78094 | 792 ft | 1 kts | 182° |
| 2026-04-23 23:18 | 50.07649 | 19.78093 | 791 ft | 5 kts | 182° |
| 2026-04-23 23:18 | 50.07617 | 19.78091 | 792 ft | 5 kts | 182° |
| 2026-04-23 23:18 | 50.07586 | 19.78089 | 794 ft | 4 kts | 182° |
| 2026-04-23 23:18 | 50.07556 | 19.78087 | 796 ft | 4 kts | 182° |
| 2026-04-23 23:19 | 50.07526 | 19.78085 | 798 ft | 4 kts | 182° |
| 2026-04-23 23:19 | 50.07498 | 19.78084 | 799 ft | 3 kts | 178° |
| 2026-04-23 23:19 | 50.07480 | 19.78101 | 799 ft | 3 kts | 129° |
| 2026-04-23 23:19 | 50.07475 | 19.78152 | 799 ft | 7 kts | 85° |
| 2026-04-23 23:20 | 50.07488 | 19.78251 | 799 ft | 14 kts | 79° |
| 2026-04-23 23:20 | 50.07516 | 19.78453 | 799 ft | 23 kts | 77° |
| 2026-04-23 23:20 | 50.07545 | 19.78664 | 799 ft | 20 kts | 78° |
| 2026-04-23 23:20 | 50.07576 | 19.78883 | 799 ft | 22 kts | 77° |
| 2026-04-23 23:21 | 50.07608 | 19.79116 | 799 ft | 18 kts | 78° |
| 2026-04-23 23:21 | 50.07630 | 19.79274 | 799 ft | 8 kts | 77° |
| 2026-04-23 23:21 | 50.07645 | 19.79380 | 799 ft | 12 kts | 77° |
| 2026-04-23 23:21 | 50.07665 | 19.79520 | 799 ft | 15 kts | 77° |
| 2026-04-23 23:22 | 50.07674 | 19.79591 | 799 ft | 3 kts | 78° |
| 2026-04-23 23:22 | 50.07673 | 19.79637 | 799 ft | 6 kts | 106° |
| 2026-04-23 23:22 | 50.07647 | 19.79708 | 799 ft | 9 kts | 122° |
| 2026-04-23 23:22 | 50.07606 | 19.79808 | 799 ft | 13 kts | 122° |
| 2026-04-23 23:23 | 50.07547 | 19.79919 | 799 ft | 12 kts | 155° |
| 2026-04-23 23:23 | 50.07460 | 19.79952 | 799 ft | 14 kts | 167° |
| 2026-04-23 23:23 | 50.07402 | 19.80012 | 799 ft | 9 kts | 101° |
| 2026-04-23 23:23 | 50.07415 | 19.80122 | 799 ft | 12 kts | 78° |
| 2026-04-23 23:24 | 50.07418 | 19.80145 | 799 ft | 0 kts | 78° |
| 2026-04-23 23:25 | 50.07419 | 19.80158 | 799 ft | 3 kts | 86° |
| 2026-04-23 23:25 | 50.07404 | 19.80185 | 799 ft | 3 kts | 162° |
| 2026-04-23 23:25 | 50.07371 | 19.80196 | 799 ft | 6 kts | 167° |
| 2026-04-23 23:26 | 50.07343 | 19.80206 | 799 ft | 0 kts | 167° |